createdAt,value
2023-03-17T00:01:11.506Z,96042.63
2023-03-17T00:03:45.699Z,96038.97
2023-03-17T00:06:19.598Z,96040.06
2023-03-17T00:08:52.338Z,96032.72
2023-03-17T00:11:27.662Z,96032.22
2023-03-17T00:14:00.382Z,96030.94
2023-03-17T00:16:35.636Z,96027.84
2023-03-17T00:19:08.331Z,96024.41
2023-03-17T00:21:42.146Z,96021.25
2023-03-17T00:24:16.077Z,96017.31
2023-03-17T00:26:50.253Z,96016.84
2023-03-17T00:29:23.030Z,96019.47
2023-03-17T00:31:58.248Z,96017.94
2023-03-17T00:34:31.128Z,96015.28
2023-03-17T00:37:04.287Z,96003.41
2023-03-17T00:39:37.279Z,96006.06
2023-03-17T00:42:11.549Z,96009.50
2023-03-17T00:44:44.746Z,96005.28
2023-03-17T00:47:17.505Z,96007.94
2023-03-17T00:49:50.206Z,96015.09
2023-03-17T00:52:22.919Z,96016.16
2023-03-17T00:54:56.025Z,96013.00
2023-03-17T00:57:30.223Z,96019.38
2023-03-17T01:00:03.330Z,96015.94
2023-03-17T01:02:36.270Z,96015.19
2023-03-17T01:05:09.141Z,96010.19
2023-03-17T01:07:42.624Z,96004.91
2023-03-17T01:10:17.296Z,96006.25
2023-03-17T01:12:52.216Z,95994.09
2023-03-17T01:15:25.580Z,95985.66
2023-03-17T01:17:58.526Z,95980.38
2023-03-17T01:20:32.822Z,95977.25
2023-03-17T01:23:05.710Z,95984.41
2023-03-17T01:25:39.288Z,95976.47
2023-03-17T01:28:14.666Z,95980.97
2023-03-17T01:30:47.530Z,95986.28
2023-03-17T01:33:20.798Z,95991.56
2023-03-17T01:35:53.670Z,95983.63
2023-03-17T01:38:26.425Z,95982.84
2023-03-17T01:40:59.530Z,95987.06
2023-03-17T01:43:33.739Z,95977.25
2023-03-17T01:46:18.430Z,95967.44
2023-03-17T01:48:56.470Z,95962.94
2023-03-17T01:51:33.133Z,95958.41
2023-03-17T01:54:08.451Z,95960.00
2023-03-17T01:56:43.324Z,95960.78
2023-03-17T01:59:20.061Z,95961.56
2023-03-17T02:01:56.733Z,95950.97
2023-03-17T02:04:29.925Z,95952.53
2023-03-17T02:07:03.818Z,95949.13
2023-03-17T02:09:36.819Z,95945.09
2023-03-17T02:12:10.684Z,95939.03
2023-03-17T02:14:45.253Z,95941.38
2023-03-17T02:17:18.134Z,95939.81
2023-03-17T02:19:51.727Z,95939.81
2023-03-17T02:22:26.250Z,95944.81
2023-03-17T02:25:00.874Z,95947.47
2023-03-17T02:27:35.905Z,95958.34
2023-03-17T02:30:09.913Z,95973.13
2023-03-17T02:32:43.456Z,95976.38
2023-03-17T02:35:16.540Z,95967.94
2023-03-17T02:37:50.622Z,95960.28
2023-03-17T02:40:24.312Z,95956.09
2023-03-17T02:42:57.688Z,95961.97
2023-03-17T02:45:31.166Z,95955.38
2023-03-17T02:48:04.094Z,95953.34
2023-03-17T02:50:37.485Z,95947.28
2023-03-17T02:53:11.663Z,95947.06
2023-03-17T02:55:44.767Z,95951.56
2023-03-17T02:58:17.465Z,95950.28
2023-03-17T03:00:50.420Z,95951.06
2023-03-17T03:03:23.414Z,95955.59
2023-03-17T03:05:57.608Z,95950.59
2023-03-17T03:08:32.183Z,95954.63
2023-03-17T03:11:05.219Z,95950.13
2023-03-17T03:13:39.028Z,95944.31
2023-03-17T03:16:11.803Z,95945.91
2023-03-17T03:18:44.782Z,95952.75
2023-03-17T03:21:17.516Z,95942.47
2023-03-17T03:23:51.764Z,95950.13
2023-03-17T03:26:24.655Z,95951.97
2023-03-17T03:28:57.454Z,95955.13
2023-03-17T03:31:30.213Z,95957.75
2023-03-17T03:34:03.392Z,95967.75
2023-03-17T03:36:37.035Z,95966.66
2023-03-17T03:39:14.199Z,95964.50
2023-03-17T03:41:47.190Z,95964.69
2023-03-17T03:44:19.932Z,95966.25
2023-03-17T03:46:52.947Z,95968.63
2023-03-17T03:49:25.725Z,95977.84
2023-03-17T03:51:58.522Z,95979.41
2023-03-17T03:54:32.649Z,95981.75
2023-03-17T03:57:05.867Z,95978.34
2023-03-17T03:59:39.146Z,95983.31
2023-03-17T04:02:11.939Z,95976.94
2023-03-17T04:04:44.765Z,95971.38
2023-03-17T04:07:17.587Z,95966.84
2023-03-17T04:09:51.703Z,95966.06
2023-03-17T04:12:24.355Z,95957.56
2023-03-17T04:14:57.286Z,95948.81
2023-03-17T04:17:29.944Z,95944.81
2023-03-17T04:20:03.044Z,95934.22
2023-03-17T04:22:35.833Z,95942.63
2023-03-17T04:25:10.747Z,95936.25
2023-03-17T04:27:43.931Z,95939.19
2023-03-17T04:30:17.172Z,95942.94
2023-03-17T04:32:49.868Z,95945.59
2023-03-17T04:35:22.905Z,95939.03
2023-03-17T04:37:55.639Z,95939.59
2023-03-17T04:40:30.120Z,95943.31
2023-03-17T04:43:03.604Z,95943.63
2023-03-17T04:45:36.677Z,95933.16
2023-03-17T04:48:10.553Z,95945.59
2023-03-17T04:50:44.432Z,95943.53
2023-03-17T04:53:17.760Z,95947.28
2023-03-17T04:55:52.342Z,95947.06
2023-03-17T04:58:30.783Z,95945.50
2023-03-17T05:01:03.944Z,95940.78
2023-03-17T05:03:36.842Z,95940.03
2023-03-17T05:06:09.688Z,95938.75
2023-03-17T05:08:43.744Z,95938.53
2023-03-17T05:11:18.283Z,95943.34
2023-03-17T05:13:51.067Z,95935.22
2023-03-17T05:16:23.888Z,95938.16
2023-03-17T05:18:56.619Z,95941.38
2023-03-17T05:21:29.323Z,95940.13
2023-03-17T05:24:01.997Z,95940.97
2023-03-17T05:26:36.532Z,95945.31
2023-03-17T05:29:09.914Z,95952.72
2023-03-17T05:31:43.358Z,95959.66
2023-03-17T05:34:17.475Z,95963.69
2023-03-17T05:36:50.748Z,95965.34
2023-03-17T05:39:23.458Z,95956.13
2023-03-17T05:41:58.055Z,95961.72
2023-03-17T05:44:31.056Z,95958.38
2023-03-17T05:47:03.882Z,95968.16
2023-03-17T05:49:36.993Z,95971.13
2023-03-17T05:52:09.966Z,95962.19
2023-03-17T05:54:42.676Z,95956.91
2023-03-17T05:57:17.104Z,95949.25
2023-03-17T05:59:50.877Z,95959.31
2023-03-17T06:02:23.891Z,95953.75
2023-03-17T06:04:56.784Z,95951.91
2023-03-17T06:07:38.173Z,95959.03
2023-03-17T06:10:21.494Z,95957.69
2023-03-17T06:12:55.754Z,95961.63
2023-03-17T06:15:29.025Z,95963.94
2023-03-17T06:18:02.001Z,95966.81
2023-03-17T06:20:35.243Z,95962.81
2023-03-17T06:23:08.054Z,95958.78
2023-03-17T06:25:41.646Z,95960.56
2023-03-17T06:28:15.765Z,95957.81
2023-03-17T06:30:48.501Z,95952.44
2023-03-17T06:33:22.133Z,95947.56
2023-03-17T06:35:54.853Z,95947.88
2023-03-17T06:38:27.628Z,95952.94
2023-03-17T06:41:00.313Z,95949.53
2023-03-17T06:43:34.461Z,95950.56
2023-03-17T06:46:07.495Z,95951.34
2023-03-17T06:48:40.400Z,95953.66
2023-03-17T06:51:13.107Z,95964.41
2023-03-17T06:53:45.904Z,95973.59
2023-03-17T06:56:29.569Z,95979.34
2023-03-17T06:59:05.229Z,95981.84
2023-03-17T07:01:38.347Z,95992.25
2023-03-17T07:04:11.235Z,95994.25
2023-03-17T07:06:44.962Z,95998.06
2023-03-17T07:09:17.657Z,96003.47
2023-03-17T07:11:50.711Z,96000.59
2023-03-17T07:14:25.746Z,95992.69
2023-03-17T07:16:58.558Z,95997.75
2023-03-17T07:19:31.973Z,95987.16
2023-03-17T07:22:04.703Z,95984.53
2023-03-17T07:24:37.473Z,95975.00
2023-03-17T07:27:10.176Z,95975.78
2023-03-17T07:29:44.395Z,95977.94
2023-03-17T07:32:17.099Z,95986.72
2023-03-17T07:34:50.106Z,95978.56
2023-03-17T07:37:22.963Z,95986.03
2023-03-17T07:39:56.209Z,95982.56
2023-03-17T07:42:30.139Z,95980.13
2023-03-17T07:45:05.982Z,95974.59
2023-03-17T07:47:39.405Z,95976.72
2023-03-17T07:50:12.523Z,95977.59
2023-03-17T07:52:45.334Z,95981.44
2023-03-17T07:55:18.139Z,95987.31
2023-03-17T07:57:50.951Z,95972.81
2023-03-17T08:00:27.125Z,95985.44
2023-03-17T08:03:09.969Z,95976.28
2023-03-17T08:05:44.663Z,95982.44
2023-03-17T08:08:17.384Z,95969.19
2023-03-17T08:10:50.184Z,95969.56
2023-03-17T08:13:23.142Z,95969.16
2023-03-17T08:15:57.236Z,95963.53
2023-03-17T08:18:29.938Z,95965.88
2023-03-17T08:21:02.852Z,95952.66
2023-03-17T08:23:35.712Z,95945.59
2023-03-17T08:26:08.629Z,95952.59
2023-03-17T08:28:41.517Z,95955.81
2023-03-17T08:31:17.216Z,95948.34
2023-03-17T08:33:50.672Z,95949.25
2023-03-17T08:36:24.049Z,95956.22
2023-03-17T08:38:56.799Z,95939.91
2023-03-17T08:41:29.571Z,95945.28
2023-03-17T08:44:02.284Z,95944.56
2023-03-17T08:46:36.947Z,95947.19
2023-03-17T08:49:10.284Z,95945.53
2023-03-17T08:51:44.181Z,95941.94
2023-03-17T08:54:16.983Z,95935.22
2023-03-17T08:56:50.032Z,95939.63
2023-03-17T08:59:23.155Z,95924.84
2023-03-17T09:01:57.225Z,95932.63
2023-03-17T09:04:29.909Z,95929.69
2023-03-17T09:07:04.207Z,95926.72
2023-03-17T09:09:37.593Z,95927.72
2023-03-17T09:12:11.265Z,95924.00
2023-03-17T09:14:45.238Z,95924.50
2023-03-17T09:17:20.400Z,95915.44
2023-03-17T09:19:53.206Z,95918.94
2023-03-17T09:22:26.256Z,95914.47
2023-03-17T09:24:59.275Z,95923.00
2023-03-17T09:27:32.132Z,95922.41
2023-03-17T09:30:06.005Z,95921.34
2023-03-17T09:32:40.281Z,95927.22
2023-03-17T09:35:12.970Z,95921.59
2023-03-17T09:37:45.655Z,95918.63
2023-03-17T09:40:19.772Z,95920.25
2023-03-17T09:42:59.295Z,95923.88
2023-03-17T09:45:34.712Z,95924.72
2023-03-17T09:48:18.483Z,95926.41
2023-03-17T09:50:55.105Z,95913.16
2023-03-17T09:53:34.011Z,95917.53
2023-03-17T09:56:08.919Z,95921.53
2023-03-17T09:58:43.410Z,95908.66
2023-03-17T10:01:16.334Z,95912.38
2023-03-17T10:03:51.597Z,95909.13
2023-03-17T10:06:32.270Z,95911.66
2023-03-17T10:09:09.533Z,95904.16
2023-03-17T10:11:43.087Z,95895.22
2023-03-17T10:14:24.873Z,95897.38
2023-03-17T10:17:01.849Z,95902.59
2023-03-17T10:19:39.561Z,95898.97
2023-03-17T10:22:16.000Z,95888.44
2023-03-17T10:24:51.832Z,95889.81
2023-03-17T10:27:24.556Z,95886.50
2023-03-17T10:29:57.733Z,95877.84
2023-03-17T10:32:31.971Z,95871.50
2023-03-17T10:35:06.960Z,95869.34
2023-03-17T10:37:43.358Z,95872.19
2023-03-17T10:40:22.035Z,95873.09
2023-03-17T10:42:56.976Z,95873.25
2023-03-17T10:45:30.912Z,95869.94
2023-03-17T10:48:04.350Z,95867.75
2023-03-17T10:50:39.724Z,95862.44
2023-03-17T10:53:28.591Z,95866.00
2023-03-17T10:56:08.112Z,95876.13
2023-03-17T10:58:44.338Z,95859.25
2023-03-17T11:01:20.371Z,95866.25
2023-03-17T11:03:53.142Z,95860.53
2023-03-17T11:06:34.111Z,95853.25
2023-03-17T11:09:09.380Z,95852.16
2023-03-17T11:11:46.619Z,95848.31
2023-03-17T11:14:20.234Z,95845.66
2023-03-17T11:16:54.600Z,95845.66
2023-03-17T11:19:32.823Z,95836.44
2023-03-17T11:22:12.037Z,95835.31
2023-03-17T11:24:51.696Z,95833.03
2023-03-17T11:27:30.213Z,95819.91
2023-03-17T11:30:20.899Z,95825.72
2023-03-17T11:32:58.199Z,95828.47
2023-03-17T11:35:37.314Z,95831.97
2023-03-17T11:38:17.927Z,95824.63
2023-03-17T11:40:59.620Z,95814.97
2023-03-17T11:43:35.766Z,95812.28
2023-03-17T11:46:10.548Z,95801.09
2023-03-17T11:48:49.584Z,95797.19
2023-03-17T11:51:27.652Z,95802.63
2023-03-17T11:54:08.085Z,95796.81
2023-03-17T11:56:42.865Z,95800.31
2023-03-17T11:59:19.838Z,95803.00
2023-03-17T12:01:56.643Z,95795.25
2023-03-17T12:04:34.449Z,95796.44
2023-03-17T12:07:15.516Z,95796.03
2023-03-17T12:09:53.623Z,95792.94
2023-03-17T12:12:29.562Z,95789.81
2023-03-17T12:15:05.355Z,95789.84
2023-03-17T12:17:40.452Z,95786.72
2023-03-17T12:20:18.424Z,95786.72
2023-03-17T12:22:57.137Z,95785.94
2023-03-17T12:25:33.143Z,95787.47
2023-03-17T12:28:11.037Z,95778.19
2023-03-17T12:30:48.484Z,95782.44
2023-03-17T12:33:23.655Z,95781.31
2023-03-17T12:35:58.359Z,95778.59
2023-03-17T12:38:36.384Z,95777.44
2023-03-17T12:41:21.978Z,95780.56
2023-03-17T12:44:00.874Z,95774.00
2023-03-17T12:46:44.361Z,95769.00
2023-03-17T12:49:32.006Z,95774.00
2023-03-17T12:52:14.220Z,95772.47
2023-03-17T12:54:47.974Z,95757.78
2023-03-17T12:57:24.324Z,95762.03
2023-03-17T12:59:59.897Z,95762.41
2023-03-17T13:02:36.614Z,95769.00
2023-03-17T13:05:11.851Z,95766.28
2023-03-17T13:07:50.217Z,95757.00
2023-03-17T13:10:38.364Z,95754.31
2023-03-17T13:13:23.283Z,95753.91
2023-03-17T13:16:00.492Z,95750.44
2023-03-17T13:18:51.750Z,95760.47
2023-03-17T13:21:26.412Z,95754.69
2023-03-17T13:24:01.362Z,95754.28
2023-03-17T13:27:04.673Z,95755.84
2023-03-17T13:29:54.458Z,95752.38
2023-03-17T13:32:45.529Z,95750.03
2023-03-17T13:35:22.234Z,95753.88
2023-03-17T13:38:21.093Z,95748.81
2023-03-17T13:40:59.966Z,95746.84
2023-03-17T13:43:43.523Z,95747.94
2023-03-17T13:46:21.242Z,95747.53
2023-03-17T13:48:55.076Z,95747.81
2023-03-17T13:51:33.736Z,95744.28
2023-03-17T13:54:10.647Z,95751.19
2023-03-17T13:56:50.133Z,95756.94
2023-03-17T13:59:24.712Z,95760.00
2023-03-17T14:02:01.437Z,95758.41
2023-03-17T14:04:38.645Z,95763.38
2023-03-17T14:07:16.894Z,95756.75
2023-03-17T14:09:52.205Z,95756.28
2023-03-17T14:12:29.260Z,95753.50
2023-03-17T14:15:07.063Z,95749.16
2023-03-17T14:17:46.111Z,95750.31
2023-03-17T14:20:24.206Z,95755.66
2023-03-17T14:22:58.219Z,95762.97
2023-03-17T14:25:33.304Z,95753.28
2023-03-17T14:28:10.976Z,95754.03
2023-03-17T14:30:51.758Z,95753.28
2023-03-17T14:33:27.297Z,95747.06
2023-03-17T14:36:01.323Z,95753.31
2023-03-17T14:38:35.415Z,95745.19
2023-03-17T14:41:09.288Z,95741.75
2023-03-17T14:43:42.842Z,95744.09
2023-03-17T14:46:17.461Z,95737.13
2023-03-17T14:48:53.120Z,95738.31
2023-03-17T14:51:27.840Z,95741.41
2023-03-17T14:54:02.157Z,95737.94
2023-03-17T14:56:37.040Z,95733.66
2023-03-17T14:59:18.522Z,95726.69
2023-03-17T15:01:54.881Z,95726.28
2023-03-17T15:04:30.545Z,95717.31
2023-03-17T15:07:04.604Z,95725.47
2023-03-17T15:09:41.692Z,95720.81
2023-03-17T15:12:17.247Z,95713.84
2023-03-17T15:14:51.925Z,95715.03
2023-03-17T15:17:28.344Z,95708.47
2023-03-17T15:20:05.521Z,95710.03
2023-03-17T15:22:42.539Z,95697.28
2023-03-17T15:25:19.610Z,95697.31
2023-03-17T15:27:53.053Z,95688.84
2023-03-17T15:30:29.484Z,95690.81
2023-03-17T15:33:05.269Z,95691.25
2023-03-17T15:35:39.583Z,95682.00
2023-03-17T15:38:12.638Z,95689.41
2023-03-17T15:40:45.807Z,95697.94
2023-03-17T15:43:18.968Z,95693.75
2023-03-17T15:45:54.971Z,95698.03
2023-03-17T15:48:29.854Z,95684.53
2023-03-17T15:51:05.897Z,95675.69
2023-03-17T15:53:38.641Z,95684.28
2023-03-17T15:56:16.433Z,95674.28
2023-03-17T15:58:51.661Z,95687.09
2023-03-17T16:01:27.660Z,95672.84
2023-03-17T16:04:00.661Z,95666.31
2023-03-17T16:06:35.651Z,95663.63
2023-03-17T16:09:15.572Z,95657.47
2023-03-17T16:11:48.239Z,95647.47
2023-03-17T16:14:21.196Z,95659.06
2023-03-17T16:16:53.942Z,95649.78
2023-03-17T16:19:26.721Z,95658.31
2023-03-17T16:22:00.924Z,95657.56
2023-03-17T16:24:33.600Z,95650.25
2023-03-17T16:27:14.300Z,95653.78
2023-03-17T16:29:47.005Z,95649.16
2023-03-17T16:32:19.921Z,95648.00
2023-03-17T16:34:52.692Z,95648.81
2023-03-17T16:37:26.792Z,95655.03
2023-03-17T16:39:59.517Z,95662.41
2023-03-17T16:42:32.557Z,95652.34
2023-03-17T16:45:05.642Z,95657.78
2023-03-17T16:47:38.331Z,95657.78
2023-03-17T16:50:15.407Z,95668.59
2023-03-17T16:52:49.535Z,95672.09
2023-03-17T16:55:22.992Z,95671.31
2023-03-17T16:57:57.403Z,95679.41
2023-03-17T17:00:31.243Z,95679.03
2023-03-17T17:03:04.254Z,95680.19
2023-03-17T17:05:37.051Z,95683.25
2023-03-17T17:08:11.583Z,95686.34
2023-03-17T17:10:44.309Z,95690.97
2023-03-17T17:13:17.540Z,95696.75
2023-03-17T17:15:50.367Z,95700.19
2023-03-17T17:18:24.624Z,95697.47
2023-03-17T17:20:57.889Z,95698.56
2023-03-17T17:23:32.501Z,95702.41
2023-03-17T17:26:05.329Z,95706.22
2023-03-17T17:28:39.588Z,95698.88
2023-03-17T17:31:12.402Z,95704.22
2023-03-17T17:33:45.463Z,95706.09
2023-03-17T17:36:18.490Z,95706.78
2023-03-17T17:38:52.804Z,95706.75
2023-03-17T17:41:25.701Z,95709.00
2023-03-17T17:43:58.437Z,95709.72
2023-03-17T17:46:31.352Z,95712.28
2023-03-17T17:49:05.257Z,95708.00
2023-03-17T17:51:37.992Z,95710.63
2023-03-17T17:54:12.444Z,95712.84
2023-03-17T17:56:46.963Z,95720.09
2023-03-17T17:59:19.690Z,95719.22
2023-03-17T18:01:52.347Z,95726.47
2023-03-17T18:04:25.884Z,95719.44
2023-03-17T18:06:58.571Z,95714.72
2023-03-17T18:09:32.872Z,95725.78
2023-03-17T18:12:05.828Z,95727.22
2023-03-17T18:14:38.583Z,95734.44
2023-03-17T18:17:11.336Z,95732.00
2023-03-17T18:19:44.176Z,95734.19
2023-03-17T18:22:17.375Z,95741.41
2023-03-17T18:24:51.866Z,95740.91
2023-03-17T18:27:24.648Z,95748.88
2023-03-17T18:29:58.487Z,95744.16
2023-03-17T18:32:31.389Z,95754.84
2023-03-17T18:35:08.961Z,95762.03
2023-03-17T18:37:41.970Z,95758.47
2023-03-17T18:40:32.196Z,95766.06
2023-03-17T18:43:04.954Z,95761.72
2023-03-17T18:45:37.993Z,95767.38
2023-03-17T18:48:10.701Z,95759.22
2023-03-17T18:50:43.453Z,95764.91
2023-03-17T18:53:16.111Z,95767.09
2023-03-17T18:55:50.541Z,95771.25
2023-03-17T18:58:23.332Z,95771.50
2023-03-17T19:00:58.964Z,95768.75
2023-03-17T19:03:32.480Z,95772.13
2023-03-17T19:06:08.745Z,95773.53
2023-03-17T19:08:41.522Z,95772.69
2023-03-17T19:11:16.977Z,95767.22
2023-03-17T19:13:49.950Z,95767.91
2023-03-17T19:16:28.956Z,95761.31
2023-03-17T19:19:02.161Z,95770.75
2023-03-17T19:21:34.896Z,95771.84
2023-03-17T19:24:09.720Z,95774.44
2023-03-17T19:26:45.403Z,95769.38
2023-03-17T19:29:18.223Z,95773.50
2023-03-17T19:31:51.365Z,95773.41
2023-03-17T19:34:24.211Z,95768.34
2023-03-17T19:36:57.042Z,95777.09
2023-03-17T19:39:31.353Z,95777.00
2023-03-17T19:42:05.836Z,95781.53
2023-03-17T19:44:38.545Z,95773.75
2023-03-17T19:47:11.297Z,95771.81
2023-03-17T19:49:44.349Z,95769.38
2023-03-17T19:52:18.138Z,95772.78
2023-03-17T19:54:50.923Z,95780.75
2023-03-17T19:57:25.384Z,95779.91
2023-03-17T19:59:58.394Z,95793.66
2023-03-17T20:02:31.392Z,95793.56
2023-03-17T20:05:04.656Z,95791.19
2023-03-17T20:07:37.606Z,95799.91
2023-03-17T20:10:11.644Z,95797.19
2023-03-17T20:12:46.124Z,95795.06
2023-03-17T20:15:19.372Z,95803.03
2023-03-17T20:17:52.028Z,95797.94
2023-03-17T20:20:24.700Z,95795.97
2023-03-17T20:22:57.397Z,95797.00
2023-03-17T20:25:30.036Z,95797.63
2023-03-17T20:28:05.571Z,95804.44
2023-03-17T20:30:38.386Z,95805.06
2023-03-17T20:33:12.493Z,95811.81
2023-03-17T20:35:46.748Z,95814.75
2023-03-17T20:38:19.663Z,95824.63
2023-03-17T20:40:52.694Z,95821.78
2023-03-17T20:43:27.267Z,95825.13
2023-03-17T20:45:59.928Z,95822.69
2023-03-17T20:48:32.734Z,95826.06
2023-03-17T20:51:06.597Z,95816.38
2023-03-17T20:53:39.349Z,95828.59
2023-03-17T20:56:13.782Z,95825.47
2023-03-17T20:58:48.539Z,95825.38
2023-03-17T21:01:22.134Z,95827.97
2023-03-17T21:03:54.981Z,95833.66
2023-03-17T21:06:28.561Z,95829.31
2023-03-17T21:09:01.796Z,95834.25
2023-03-17T21:11:34.805Z,95826.13
2023-03-17T21:14:09.146Z,95824.91
2023-03-17T21:16:45.109Z,95829.84
2023-03-17T21:19:19.717Z,95830.53
2023-03-17T21:21:52.582Z,95833.53
2023-03-17T21:24:26.777Z,95844.25
2023-03-17T21:27:00.193Z,95836.53
2023-03-17T21:29:34.924Z,95847.59
2023-03-17T21:32:08.540Z,95839.94
2023-03-17T21:34:41.773Z,95847.94
2023-03-17T21:37:16.045Z,95846.41
2023-03-17T21:39:48.943Z,95840.59
2023-03-17T21:42:21.798Z,95847.41
2023-03-17T21:44:56.417Z,95847.75
2023-03-17T21:47:30.251Z,95850.34
2023-03-17T21:50:03.768Z,95851.78
2023-03-17T21:52:37.005Z,95845.56
2023-03-17T21:55:10.686Z,95850.47
2023-03-17T21:57:43.554Z,95850.72
2023-03-17T22:00:18.262Z,95857.50
2023-03-17T22:02:51.386Z,95855.50
2023-03-17T22:05:24.142Z,95868.78
2023-03-17T22:07:57.215Z,95866.44
2023-03-17T22:10:30.104Z,95865.56
2023-03-17T22:13:03.433Z,95855.19
2023-03-17T22:15:37.742Z,95855.53
2023-03-17T22:18:10.653Z,95866.22
2023-03-17T22:20:44.876Z,95861.22
2023-03-17T22:23:18.093Z,95869.25
2023-03-17T22:25:51.018Z,95873.03
2023-03-17T22:28:24.294Z,95868.81
2023-03-17T22:30:58.517Z,95872.59
2023-03-17T22:33:31.213Z,95865.69
2023-03-17T22:36:04.044Z,95868.28
2023-03-17T22:38:36.763Z,95883.53
2023-03-17T22:41:10.450Z,95884.19
2023-03-17T22:43:43.214Z,95887.97
2023-03-17T22:46:17.485Z,95887.53
2023-03-17T22:48:50.461Z,95883.22
2023-03-17T22:51:24.237Z,95895.34
2023-03-17T22:53:57.349Z,95899.13
2023-03-17T22:56:30.131Z,95891.81
2023-03-17T22:59:03.091Z,95888.22
2023-03-17T23:01:37.227Z,95888.88
2023-03-17T23:04:10.223Z,95892.69
2023-03-17T23:06:43.533Z,95898.72
2023-03-17T23:09:16.179Z,95899.38
2023-03-17T23:11:48.895Z,95908.06
2023-03-17T23:14:21.655Z,95914.53
2023-03-17T23:16:55.931Z,95909.84
2023-03-17T23:19:28.617Z,95918.97
2023-03-17T23:22:01.870Z,95923.06
2023-03-17T23:24:34.589Z,95920.75
2023-03-17T23:27:08.027Z,95922.66
2023-03-17T23:29:41.218Z,95915.75
2023-03-17T23:32:16.313Z,95917.19
2023-03-17T23:34:49.037Z,95926.31
2023-03-17T23:37:21.806Z,95920.09
2023-03-17T23:39:55.078Z,95918.53
2023-03-17T23:42:29.185Z,95918.41
2023-03-17T23:45:02.131Z,95919.09
2023-03-17T23:47:36.577Z,95926.19
2023-03-17T23:50:10.332Z,95928.72
2023-03-17T23:52:43.624Z,95929.41
2023-03-17T23:55:17.205Z,95934.31
2023-03-17T23:57:50.407Z,95937.63
